Time;durP1;ratioP1;P1;durP2;ratioP2;P2;SDS_P1;SDS_P2;PMS_P1;PMS_P2;Temp;Humidity;BMP_temperature;BMP_pressure;BME280_temperature;BME280_humidity;BME280_pressure;Samples;Min_cycle;Max_cycle;Signal;HPM_P1;HPM_P2
2022/06/13 00:02:28;;;;;;;7.85;2.78;;;;;;;11.20;100.00;101203.69;5090400;28;20803;-87
2022/06/13 00:05:02;;;;;;;11.48;3.10;;;;;;;11.00;100.00;101177.25;5090507;28;20429;-88
2022/06/13 00:07:35;;;;;;;9.23;3.15;;;;;;;11.07;100.00;101188.69;5091770;28;20767;-87
2022/06/13 00:10:06;;;;;;;10.38;3.13;;;;;;;11.07;100.00;101196.84;5090516;28;20437;-87
2022/06/13 00:12:41;;;;;;;12.05;4.00;;;;;;;11.09;100.00;101189.25;5090091;28;20429;-87
2022/06/13 00:15:16;;;;;;;11.52;3.42;;;;;;;11.19;100.00;101194.69;5090278;28;20414;-88
2022/06/13 00:17:49;;;;;;;11.13;3.60;;;;;;;11.11;100.00;101199.88;5089879;28;20421;-87
2022/06/13 00:20:17;;;;;;;11.90;3.67;;;;;;;11.15;100.00;101199.03;5091925;28;20405;-88
2022/06/13 00:22:51;;;;;;;10.88;3.42;;;;;;;11.12;100.00;101196.88;5090292;28;20902;-88
2022/06/13 00:25:20;;;;;;;8.85;3.40;;;;;;;11.20;100.00;101196.34;5107169;28;20425;-87
2022/06/13 00:27:49;;;;;;;11.13;3.83;;;;;;;11.20;100.00;101193.63;5094755;28;20408;-88
2022/06/13 00:30:23;;;;;;;10.45;3.45;;;;;;;11.22;100.00;101194.16;5089830;28;20418;-88
2022/06/13 00:32:57;;;;;;;10.73;3.63;;;;;;;10.96;100.00;101195.22;5089995;28;20424;-87
2022/06/13 00:35:30;;;;;;;9.32;3.17;;;;;;;11.13;100.00;101200.41;5089980;28;20410;-87
2022/06/13 00:37:58;;;;;;;10.20;3.20;;;;;;;11.14;100.00;101196.59;5089948;28;20414;-87
2022/06/13 00:40:34;;;;;;;10.52;3.58;;;;;;;11.10;100.00;101190.88;5090240;28;20418;-87
2022/06/13 00:43:08;;;;;;;8.98;3.65;;;;;;;10.98;100.00;101191.13;5089627;28;20414;-87
2022/06/13 00:45:37;;;;;;;10.05;3.75;;;;;;;11.01;100.00;101176.97;5089880;28;20448;-87
2022/06/13 00:48:06;;;;;;;9.07;3.40;;;;;;;11.08;100.00;101173.97;5089869;28;20406;-87
2022/06/13 00:50:45;;;;;;;10.20;3.80;;;;;;;11.03;100.00;101184.88;5091711;28;20421;-87
2022/06/13 00:53:22;;;;;;;11.75;3.50;;;;;;;11.04;100.00;101172.91;5091091;28;20414;-88
2022/06/13 00:55:56;;;;;;;11.75;3.90;;;;;;;11.04;100.00;101164.72;5097002;28;20406;-87
2022/06/13 00:58:26;;;;;;;11.23;3.80;;;;;;;11.10;100.00;101165.53;5074844;28;20440;-87
2022/06/13 01:01:00;;;;;;;11.88;4.45;;;;;;;11.18;100.00;101168.53;5075094;28;20420;-87
2022/06/13 01:03:35;;;;;;;11.02;3.97;;;;;;;11.08;100.00;101170.47;5073882;28;20427;-87
2022/06/13 01:06:08;;;;;;;10.23;3.50;;;;;;;10.94;100.00;101140.19;5092060;28;20445;-86
2022/06/13 01:08:38;;;;;;;11.55;4.40;;;;;;;11.02;100.00;101175.88;5093671;28;20421;-86
2022/06/13 01:11:18;;;;;;;11.07;4.22;;;;;;;10.96;100.00;101165.25;5095067;28;20425;-88
2022/06/13 01:14:18;;;;;;;10.60;4.00;;;;;;;11.07;100.00;101172.34;5094980;28;20413;-87
2022/06/13 01:17:07;;;;;;;13.40;4.68;;;;;;;10.97;100.00;101170.44;5095107;28;20424;-87
2022/06/13 01:19:58;;;;;;;10.02;3.83;;;;;;;11.07;100.00;101183.25;5094831;28;20919;-87
2022/06/13 01:23:01;;;;;;;12.85;4.15;;;;;;;10.84;100.00;101160.06;5093364;28;20417;-88
2022/06/13 01:25:46;;;;;;;10.65;3.95;;;;;;;10.90;100.00;101169.88;5093236;28;20894;-86
2022/06/13 01:28:42;;;;;;;11.53;4.10;;;;;;;11.00;100.00;101178.06;5092971;28;20433;-87
2022/06/13 01:31:20;;;;;;;13.07;4.10;;;;;;;10.95;100.00;101169.91;5092962;28;20510;-87
2022/06/13 01:34:05;;;;;;;13.05;3.90;;;;;;;10.98;100.00;101182.13;5088803;28;20425;-88
2022/06/13 01:36:51;;;;;;;12.07;3.88;;;;;;;11.07;100.00;101177.78;5073120;28;20489;-87
2022/06/13 01:39:33;;;;;;;9.43;3.83;;;;;;;10.96;100.00;101176.16;5084317;28;20421;-86
2022/06/13 01:42:10;;;;;;;10.35;3.97;;;;;;;10.95;100.00;101177.22;5094740;28;20405;-87
2022/06/13 01:44:54;;;;;;;10.75;3.88;;;;;;;10.95;100.00;101180.78;5094430;28;20770;-87
2022/06/13 01:47:35;;;;;;;12.75;4.00;;;;;;;10.98;100.00;101180.25;5092637;28;20445;-86
2022/06/13 01:50:14;;;;;;;9.38;3.63;;;;;;;10.71;100.00;101131.44;5093008;28;20422;-86
2022/06/13 01:52:53;;;;;;;11.05;3.70;;;;;;;11.05;100.00;101172.63;5094074;28;20405;-86
2022/06/13 01:55:39;;;;;;;10.25;3.70;;;;;;;10.93;100.00;101174.78;5094046;28;20433;-86
2022/06/13 01:58:15;;;;;;;9.45;3.45;;;;;;;10.89;100.00;101179.94;5092616;28;20418;-86
2022/06/13 02:00:53;;;;;;;10.85;3.75;;;;;;;10.85;100.00;101169.88;5092775;28;21153;-86
2022/06/13 02:03:33;;;;;;;10.65;3.60;;;;;;;10.90;100.00;101175.31;5094258;28;21185;-88
2022/06/13 02:06:12;;;;;;;8.52;3.35;;;;;;;10.69;100.00;101172.56;5092514;28;20858;-87
2022/06/13 02:08:50;;;;;;;10.30;3.80;;;;;;;10.68;100.00;101167.38;5091456;28;20410;-87
2022/06/13 02:11:30;;;;;;;12.75;3.63;;;;;;;10.66;100.00;101170.38;5092250;28;20425;-86
2022/06/13 02:14:05;;;;;;;10.25;3.75;;;;;;;10.67;100.00;101163.03;5092315;28;20418;-85
2022/06/13 02:16:44;;;;;;;10.83;3.80;;;;;;;10.63;100.00;101159.19;5093840;28;20406;-86
2022/06/13 02:19:27;;;;;;;11.27;3.97;;;;;;;10.64;100.00;101167.09;5092343;28;20426;-86
2022/06/13 02:22:10;;;;;;;10.67;3.77;;;;;;;10.54;100.00;101158.91;5094152;28;20414;-86
2022/06/13 02:24:49;;;;;;;11.73;4.03;;;;;;;10.50;100.00;101158.63;5092392;28;20422;-86
2022/06/13 02:27:25;;;;;;;10.13;3.72;;;;;;;10.51;100.00;101157.53;5092338;28;20782;-86
2022/06/13 02:30:04;;;;;;;10.18;3.40;;;;;;;10.42;100.00;101156.41;5091538;28;20425;-86
2022/06/13 02:32:42;;;;;;;10.27;3.80;;;;;;;10.49;100.00;101159.69;5093673;28;20424;-86
2022/06/13 02:35:15;;;;;;;10.25;3.78;;;;;;;10.27;100.00;101126.41;5091969;28;20881;-86
2022/06/13 02:37:52;;;;;;;9.75;3.53;;;;;;;10.46;100.00;101164.88;5091587;28;20415;-85
2022/06/13 02:40:29;;;;;;;8.52;3.53;;;;;;;10.42;100.00;101156.41;5091733;28;20429;-86
2022/06/13 02:43:07;;;;;;;11.70;3.92;;;;;;;10.45;100.00;101166.75;5092099;28;20409;-85
2022/06/13 02:45:46;;;;;;;10.65;3.58;;;;;;;10.41;100.00;101156.69;5091728;28;20422;-86
2022/06/13 02:48:19;;;;;;;10.85;3.95;;;;;;;10.45;100.00;101161.31;5098839;28;20901;-86
2022/06/13 02:50:55;;;;;;;9.20;3.40;;;;;;;10.37;100.00;101154.50;5091629;28;20425;-86
2022/06/13 02:53:36;;;;;;;10.43;3.78;;;;;;;10.26;100.00;101151.97;5091195;28;20425;-86
2022/06/13 02:56:14;;;;;;;9.65;3.38;;;;;;;10.25;100.00;101145.72;5092909;28;20429;-86
2022/06/13 02:58:58;;;;;;;8.75;3.42;;;;;;;10.36;100.00;101150.13;5090741;28;20426;-85
2022/06/13 03:01:37;;;;;;;11.15;3.70;;;;;;;10.28;100.00;101149.81;5090979;28;20785;-86
2022/06/13 03:04:16;;;;;;;8.43;3.58;;;;;;;10.11;100.00;101118.19;5091227;28;20413;-85
2022/06/13 03:06:58;;;;;;;8.50;3.60;;;;;;;10.31;100.00;101165.59;5091012;28;20417;-86
2022/06/13 03:09:33;;;;;;;10.15;3.80;;;;;;;10.29;100.00;101146.00;5081178;28;20442;-84
2022/06/13 03:12:13;;;;;;;12.70;3.95;;;;;;;10.34;100.00;101146.00;5087920;28;20760;-85
2022/06/13 03:14:50;;;;;;;9.82;3.90;;;;;;;10.46;100.00;101156.72;5074023;28;20419;-85
2022/06/13 03:17:31;;;;;;;10.68;4.13;;;;;;;10.56;100.00;101159.44;5070380;28;20892;-85
2022/06/13 03:20:10;;;;;;;8.10;3.65;;;;;;;10.56;100.00;101148.56;5070027;28;20428;-85
2022/06/13 03:22:50;;;;;;;10.30;3.78;;;;;;;10.63;100.00;101151.03;5086014;28;20416;-86
2022/06/13 03:25:28;;;;;;;10.73;3.78;;;;;;;10.66;100.00;101145.03;5083468;28;20421;-86
2022/06/13 03:28:01;;;;;;;9.57;3.80;;;;;;;10.69;100.00;101137.16;5090916;28;20429;-86
2022/06/13 03:30:32;;;;;;;11.00;3.67;;;;;;;10.68;100.00;101135.53;5091093;28;20420;-86
2022/06/13 03:36:00;;;;;;;10.93;4.03;;;;;;;10.85;100.00;101127.13;5095406;28;20430;-84
2022/06/13 03:38:40;;;;;;;11.50;3.80;;;;;;;10.85;100.00;101129.03;5088411;28;20417;-85
2022/06/13 03:41:16;;;;;;;11.95;3.90;;;;;;;10.73;100.00;101121.13;5090590;28;20429;-85
2022/06/13 03:43:57;;;;;;;10.43;3.92;;;;;;;10.84;100.00;101127.38;5090600;28;20411;-83
2022/06/13 03:46:33;;;;;;;11.68;3.70;;;;;;;10.78;100.00;101118.38;5090725;28;20406;-84
2022/06/13 03:49:13;;;;;;;13.60;3.67;;;;;;;10.56;100.00;101085.97;5090707;28;20441;-84
2022/06/13 03:51:50;;;;;;;9.30;3.47;;;;;;;10.86;100.00;101131.47;5092102;28;20436;-83
2022/06/13 03:54:25;;;;;;;11.35;3.78;;;;;;;10.99;100.00;101123.84;5092041;28;20405;-85
2022/06/13 03:56:59;;;;;;;9.93;3.70;;;;;;;10.97;100.00;101140.47;5090255;28;20421;-84
2022/06/13 03:59:38;;;;;;;11.70;3.67;;;;;;;11.01;100.00;101148.94;5094106;28;20422;-84
2022/06/13 04:02:14;;;;;;;8.00;3.40;;;;;;;10.91;100.00;101135.28;5094851;28;20421;-84
2022/06/13 04:04:45;;;;;;;9.80;3.45;;;;;;;11.02;100.00;101147.81;5110789;28;20419;-85
2022/06/13 04:07:14;;;;;;;11.15;3.20;;;;;;;10.98;100.00;101160.34;5127716;27;20408;-86
2022/06/13 04:09:52;;;;;;;10.88;3.22;;;;;;;11.00;100.00;101164.44;5110217;28;20420;-84
2022/06/13 04:12:40;;;;;;;8.52;3.33;;;;;;;10.82;100.00;101162.25;5112104;28;20404;-83
2022/06/13 04:15:42;;;;;;;10.13;3.38;;;;;;;10.96;100.00;101154.38;5106428;28;20906;-85
2022/06/13 04:18:20;;;;;;;10.55;3.38;;;;;;;10.94;100.00;101146.47;5066809;28;20412;-82
2022/06/13 04:20:57;;;;;;;8.63;3.05;;;;;;;11.03;100.00;101153.03;5070163;28;20408;-84
2022/06/13 04:23:31;;;;;;;9.65;3.17;;;;;;;11.14;100.00;101150.28;5069370;28;20416;-83
2022/06/13 04:26:11;;;;;;;8.48;3.35;;;;;;;11.10;100.00;101143.75;5070433;28;20436;-85
2022/06/13 04:28:51;;;;;;;9.90;3.22;;;;;;;11.16;100.00;101148.94;5071558;28;20418;-83
2022/06/13 04:31:20;;;;;;;10.00;3.40;;;;;;;11.19;100.00;101142.13;5070403;28;20411;-84
2022/06/13 04:33:52;;;;;;;10.25;3.42;;;;;;;11.24;100.00;101144.81;5073597;28;20419;-85
2022/06/13 04:36:27;;;;;;;13.83;3.53;;;;;;;11.32;100.00;101147.00;5074044;28;20412;-84
2022/06/13 04:39:04;;;;;;;9.73;3.00;;;;;;;11.31;100.00;101159.00;5074326;28;20430;-83
2022/06/13 04:41:37;;;;;;;9.02;3.20;;;;;;;11.34;100.00;101160.38;5073800;28;20422;-84
2022/06/13 04:44:18;;;;;;;8.98;3.17;;;;;;;11.20;100.00;101149.22;5074249;28;20419;-84
2022/06/13 04:46:53;;;;;;;8.77;3.10;;;;;;;11.23;100.00;101165.81;5090437;28;20414;-84
2022/06/13 04:49:32;;;;;;;8.20;3.10;;;;;;;11.34;100.00;101169.38;5093775;28;20488;-84
2022/06/13 04:52:04;;;;;;;9.40;2.90;;;;;;;11.29;100.00;101163.91;5088807;28;20930;-85
2022/06/13 04:54:37;;;;;;;9.20;2.70;;;;;;;11.08;100.00;101146.75;5094694;28;20414;-88
2022/06/13 04:57:14;;;;;;;8.27;2.67;;;;;;;11.14;100.00;101151.09;5095910;28;20424;-84
2022/06/13 04:59:43;;;;;;;8.05;2.20;;;;;;;11.15;100.00;101151.94;5093773;28;20422;-86
2022/06/13 05:02:20;;;;;;;6.65;2.13;;;;;;;11.03;100.00;101150.28;5093438;28;20786;-85
2022/06/13 05:04:53;;;;;;;7.10;2.33;;;;;;;10.98;100.00;101139.38;5093694;28;20421;-86
2022/06/13 05:07:23;;;;;;;4.68;1.80;;;;;;;11.05;100.00;101150.81;5100824;28;20443;-86
2022/06/13 05:10:01;;;;;;;5.82;2.00;;;;;;;11.11;100.00;101150.84;5092154;28;20862;-87
2022/06/13 05:12:40;;;;;;;5.97;2.22;;;;;;;11.19;100.00;101150.28;5094028;28;20440;-86
2022/06/13 05:15:19;;;;;;;7.07;2.58;;;;;;;11.14;100.00;101147.56;5095131;28;20444;-85
2022/06/13 05:18:10;;;;;;;6.90;2.80;;;;;;;10.98;100.00;101133.94;5092779;28;20797;-86
2022/06/13 05:20:46;;;;;;;7.85;2.92;;;;;;;11.23;100.00;101157.63;5093414;28;20410;-85
2022/06/13 05:23:32;;;;;;;8.77;3.03;;;;;;;11.94;100.00;101132.47;5088797;28;20429;-85
2022/06/13 05:26:06;;;;;;;8.10;2.92;;;;;;;13.37;100.00;101141.75;5088946;28;20430;-85
2022/06/13 05:28:41;;;;;;;6.10;2.70;;;;;;;13.88;100.00;101145.88;5092534;28;20417;-84
2022/06/13 05:31:18;;;;;;;10.18;3.20;;;;;;;15.64;100.00;101139.47;5092223;28;20493;-83
2022/06/13 05:33:48;;;;;;;8.68;2.72;;;;;;;14.70;100.00;101146.78;5092301;28;20410;-84
2022/06/13 05:36:19;;;;;;;8.87;2.77;;;;;;;14.27;100.00;101142.13;5088709;28;20413;-84
2022/06/13 05:38:54;;;;;;;7.63;3.00;;;;;;;15.79;100.00;101143.88;5100410;28;20415;-84
2022/06/13 05:41:28;;;;;;;7.88;2.65;;;;;;;16.05;100.00;101101.41;5093596;28;20440;-85
2022/06/13 05:44:02;;;;;;;9.05;2.97;;;;;;;16.32;100.00;101142.56;5109390;28;20418;-84
2022/06/13 05:46:38;;;;;;;9.15;3.03;;;;;;;15.98;100.00;101138.31;5092713;28;20418;-85
2022/06/13 05:49:13;;;;;;;8.50;2.70;;;;;;;14.73;100.00;101101.53;5092639;28;20433;-84
2022/06/13 05:51:46;;;;;;;8.93;2.90;;;;;;;14.39;100.00;101149.09;5093040;28;20418;-83
2022/06/13 05:54:19;;;;;;;10.18;3.08;;;;;;;13.80;100.00;101140.25;5092511;28;20421;-85
2022/06/13 05:56:52;;;;;;;9.68;3.00;;;;;;;13.80;100.00;101145.72;5094143;28;20422;-86
2022/06/13 05:59:27;;;;;;;9.43;3.30;;;;;;;13.69;100.00;101148.53;5093620;28;20414;-84
2022/06/13 06:02:00;;;;;;;8.55;2.90;;;;;;;13.72;100.00;101153.44;5092831;28;20425;-84
2022/06/13 06:04:28;;;;;;;9.00;3.20;;;;;;;13.70;100.00;101154.81;5076706;28;20942;-85
2022/06/13 06:06:56;;;;;;;7.40;2.90;;;;;;;13.58;100.00;101145.09;5088424;28;20412;-82
2022/06/13 06:09:29;;;;;;;8.35;3.20;;;;;;;13.73;100.00;101146.06;5073598;28;20416;-82
2022/06/13 06:12:03;;;;;;;10.55;3.08;;;;;;;13.71;100.00;101137.31;5093808;28;20897;-83
2022/06/13 06:14:38;;;;;;;10.07;3.13;;;;;;;14.00;100.00;101139.19;5093089;28;20421;-85
2022/06/13 06:17:11;;;;;;;8.88;2.95;;;;;;;14.36;100.00;101144.22;5088565;28;20428;-82
2022/06/13 06:19:44;;;;;;;10.57;3.10;;;;;;;14.55;100.00;101127.81;5087373;28;20433;-85
2022/06/13 06:22:17;;;;;;;9.77;2.90;;;;;;;14.35;100.00;101121.50;5079388;28;20417;-84
2022/06/13 06:24:50;;;;;;;9.85;3.05;;;;;;;14.15;100.00;101140.94;5085515;28;20422;-86
2022/06/13 06:27:23;;;;;;;9.77;3.00;;;;;;;13.81;100.00;101139.13;5077079;28;20934;-85
2022/06/13 06:29:53;;;;;;;9.83;3.13;;;;;;;13.83;100.00;101139.66;5088690;28;20442;-85
2022/06/13 06:32:26;;;;;;;10.02;3.20;;;;;;;13.69;100.00;101150.47;5079015;28;20919;-84
2022/06/13 06:34:59;;;;;;;10.27;3.13;;;;;;;13.68;100.00;101155.09;5091551;28;20418;-85
2022/06/13 06:37:32;;;;;;;10.43;3.28;;;;;;;13.47;100.00;101123.63;5085278;28;20424;-84
2022/06/13 06:40:07;;;;;;;8.75;3.13;;;;;;;14.22;100.00;101153.13;5072029;28;20427;-84
2022/06/13 06:42:41;;;;;;;9.27;3.10;;;;;;;14.19;100.00;101147.44;5082484;28;20428;-85
2022/06/13 06:45:17;;;;;;;10.68;3.50;;;;;;;14.33;100.00;101145.59;5078901;28;20958;-85
2022/06/13 06:47:50;;;;;;;11.63;3.30;;;;;;;14.55;100.00;101157.94;5089947;28;20418;-84
2022/06/13 06:50:26;;;;;;;11.07;3.22;;;;;;;14.61;100.00;101154.00;5062920;28;20908;-86
2022/06/13 06:52:54;;;;;;;11.75;3.42;;;;;;;14.71;100.00;101140.19;5078398;28;20436;-85
2022/06/13 07:01:10;;;;;;;8.32;3.00;;;;;;;15.03;100.00;101132.31;5060361;28;20443;-83
2022/06/13 07:03:39;;;;;;;11.60;2.88;;;;;;;14.79;100.00;101131.31;5064662;28;20433;-84
2022/06/13 07:06:14;;;;;;;8.85;3.10;;;;;;;14.93;100.00;101139.59;5066956;28;20427;-83
2022/06/13 07:08:43;;;;;;;8.23;2.93;;;;;;;15.22;100.00;101138.59;5081054;28;20419;-84
2022/06/13 07:14:11;;;;;;;11.98;4.60;;;;;;;15.51;100.00;101132.06;5059827;28;20427;-82
2022/06/13 07:16:45;;;;;;;8.77;2.63;;;;;;;15.79;100.00;101132.06;5053854;28;20425;-83
2022/06/13 07:19:19;;;;;;;6.57;2.40;;;;;;;15.46;100.00;101124.72;5056388;28;20966;-83
2022/06/13 07:21:52;;;;;;;6.70;2.33;;;;;;;15.38;100.00;101124.59;5064400;28;20426;-83
2022/06/13 07:24:21;;;;;;;9.18;2.30;;;;;;;15.26;100.00;101119.59;5065719;28;20422;-85
2022/06/13 07:26:55;;;;;;;9.30;2.20;;;;;;;15.58;100.00;101109.72;5057066;28;20433;-85
2022/06/13 07:29:28;;;;;;;6.10;1.90;;;;;;;15.73;100.00;101117.66;5063528;28;20427;-85
2022/06/13 07:32:08;;;;;;;8.80;2.10;;;;;;;16.28;100.00;101119.59;5057057;28;20435;-86
2022/06/13 07:34:42;;;;;;;5.15;1.70;;;;;;;16.05;100.00;101112.41;5060854;28;20838;-85
2022/06/13 07:40:16;;;;;;;7.57;1.83;;;;;;;16.07;100.00;101119.19;5068947;28;20446;-84
2022/06/13 07:42:53;;;;;;;5.15;1.58;;;;;;;16.28;100.00;101105.84;5059985;28;21036;-83
2022/06/13 07:45:30;;;;;;;5.00;1.58;;;;;;;16.60;100.00;101117.78;5059658;28;20460;-83
2022/06/13 07:48:06;;;;;;;6.93;2.00;;;;;;;16.30;100.00;101119.28;5060419;28;20442;-83
2022/06/13 07:50:40;;;;;;;9.00;3.50;;;;;;;16.26;100.00;101112.78;5051215;28;20426;-84
2022/06/13 07:53:09;;;;;;;4.50;1.50;;;;;;;15.93;100.00;101112.91;5057160;28;20426;-84
2022/06/13 07:55:42;;;;;;;4.32;1.45;;;;;;;16.18;100.00;101117.03;5063122;28;20418;-84
2022/06/13 07:58:16;;;;;;;4.20;1.33;;;;;;;15.90;100.00;101117.06;5057056;28;21262;-84
2022/06/13 08:00:50;;;;;;;6.13;1.55;;;;;;;15.92;100.00;101114.84;5061430;28;20442;-84
2022/06/13 08:03:24;;;;;;;5.40;1.52;;;;;;;15.68;100.00;101106.75;5077524;28;20424;-83
2022/06/13 08:05:59;;;;;;;6.70;1.90;;;;;;;15.64;100.00;101125.75;5057687;28;20450;-85
2022/06/13 08:08:34;;;;;;;6.25;1.85;;;;;;;15.61;100.00;101123.63;5065063;28;20422;-85
2022/06/13 08:11:10;;;;;;;6.53;1.70;;;;;;;15.44;100.00;101115.19;5055381;28;21835;-84
2022/06/13 08:13:43;;;;;;;6.15;1.70;;;;;;;15.37;100.00;101137.50;5063905;28;20433;-83
2022/06/13 08:16:16;;;;;;;8.00;1.80;;;;;;;15.62;100.00;101144.47;5053463;28;20435;-82
2022/06/13 08:18:51;;;;;;;7.88;1.60;;;;;;;16.03;100.00;101129.16;5060710;28;20428;-85
2022/06/13 08:21:24;;;;;;;5.35;1.42;;;;;;;15.87;100.00;101127.81;5062415;28;20430;-84
2022/06/13 08:23:52;;;;;;;3.65;1.35;;;;;;;16.22;100.00;101134.53;5082710;28;20414;-84
2022/06/13 08:26:21;;;;;;;5.43;1.50;;;;;;;16.36;100.00;101137.25;5057008;28;20437;-86
2022/06/13 08:28:54;;;;;;;6.18;1.35;;;;;;;16.54;100.00;101151.97;5059603;28;20422;-83
2022/06/13 08:31:28;;;;;;;1.88;0.82;;;;;;;16.80;100.00;101137.66;5054886;28;20429;-84
2022/06/13 08:33:58;;;;;;;2.95;0.90;;;;;;;16.31;100.00;101145.63;5056118;28;20434;-81
2022/06/13 08:36:31;;;;;;;4.38;1.00;;;;;;;15.34;100.00;101157.28;5064528;28;20430;-83
2022/06/13 08:39:00;;;;;;;3.17;1.10;;;;;;;14.78;100.00;101164.50;5060982;28;20423;-85
2022/06/13 08:41:39;;;;;;;3.17;1.10;;;;;;;14.38;100.00;101164.72;5053283;28;20430;-84
2022/06/13 08:44:30;;;;;;;2.42;1.00;;;;;;;13.74;100.00;101155.88;5064185;28;20417;-82
2022/06/13 08:47:11;;;;;;;2.75;1.08;;;;;;;13.79;100.00;101174.97;5060923;28;20921;-84
2022/06/13 08:49:44;;;;;;;3.03;1.20;;;;;;;13.53;100.00;101168.94;5053991;28;20430;-83
2022/06/13 08:52:26;;;;;;;3.58;1.10;;;;;;;13.85;100.00;101175.72;5075419;28;20434;-88
2022/06/13 08:55:05;;;;;;;4.53;1.20;;;;;;;14.51;100.00;101178.78;5057994;28;20423;-85
2022/06/13 08:57:36;;;;;;;2.10;1.00;;;;;;;14.48;100.00;101174.72;5060078;28;21015;-87
2022/06/13 09:00:08;;;;;;;5.93;1.27;;;;;;;14.57;100.00;101185.81;5079179;28;20424;-85
2022/06/13 09:02:48;;;;;;;3.40;1.10;;;;;;;14.21;100.00;101170.69;5062733;28;20430;-86
2022/06/13 09:05:27;;;;;;;2.75;1.10;;;;;;;13.98;100.00;101179.72;5055567;28;20438;-87
2022/06/13 09:08:01;;;;;;;3.45;1.17;;;;;;;14.10;100.00;101175.47;5057094;28;20425;-83
2022/06/13 09:10:43;;;;;;;3.05;0.93;;;;;;;14.09;100.00;101182.03;5053989;28;20427;-86
2022/06/13 09:13:23;;;;;;;3.50;1.05;;;;;;;13.67;100.00;101160.88;5061937;28;20423;-85
2022/06/13 09:16:05;;;;;;;3.33;1.10;;;;;;;13.56;100.00;101182.88;5077156;28;20432;-86
2022/06/13 09:18:39;;;;;;;6.22;2.65;;;;;;;13.45;100.00;101173.13;5051859;28;21220;-85
2022/06/13 09:21:16;;;;;;;3.97;1.17;;;;;;;13.37;100.00;101168.28;5057040;28;20430;-85
2022/06/13 09:24:01;;;;;;;3.80;1.10;;;;;;;13.48;100.00;101199.06;5076888;27;20439;-87
2022/06/13 09:26:47;;;;;;;2.63;1.00;;;;;;;13.67;100.00;101193.69;5056665;28;20428;-83
2022/06/13 09:29:22;;;;;;;2.28;1.08;;;;;;;13.96;100.00;101190.94;5059047;28;20415;-83
2022/06/13 09:31:55;;;;;;;3.92;1.20;;;;;;;14.11;100.00;101190.78;5056534;28;20743;-87
2022/06/13 09:34:35;;;;;;;1.48;0.90;;;;;;;14.28;100.00;101179.34;5057333;28;20421;-87
2022/06/13 09:37:10;;;;;;;2.83;1.10;;;;;;;14.65;100.00;101184.38;5060303;28;20784;-86
2022/06/13 09:39:44;;;;;;;1.80;0.90;;;;;;;14.37;100.00;101176.78;5067213;28;20419;-87
2022/06/13 09:42:36;;;;;;;1.98;1.00;;;;;;;14.45;100.00;101178.06;5060663;28;20443;-84
2022/06/13 09:45:24;;;;;;;2.35;1.00;;;;;;;14.91;100.00;101171.13;5063297;28;20758;-85
2022/06/13 09:48:09;;;;;;;2.60;0.90;;;;;;;14.60;100.00;101179.78;5078849;28;20411;-86
2022/06/13 09:50:45;;;;;;;1.70;0.80;;;;;;;14.52;100.00;101178.50;5054187;28;20446;-86
2022/06/13 09:53:29;;;;;;;2.57;0.90;;;;;;;15.12;100.00;101188.91;5068507;28;21086;-87
2022/06/13 09:56:06;;;;;;;2.30;0.90;;;;;;;15.32;100.00;101188.88;5059690;28;20455;-84
2022/06/13 09:58:50;;;;;;;1.73;0.80;;;;;;;15.54;100.00;101186.31;5058904;28;20448;-85
2022/06/13 10:01:30;;;;;;;2.15;0.80;;;;;;;16.03;100.00;101184.06;5057321;28;20437;-86
2022/06/13 10:04:05;;;;;;;2.03;0.80;;;;;;;15.93;100.00;101192.50;5084193;28;20426;-87
2022/06/13 10:06:44;;;;;;;2.47;0.80;;;;;;;15.74;100.00;101192.53;5063048;28;20423;-88
2022/06/13 10:09:28;;;;;;;1.80;0.80;;;;;;;15.49;100.00;101194.63;5061108;28;20424;-82
2022/06/13 10:12:09;;;;;;;1.50;0.70;;;;;;;15.56;100.00;101194.22;5061694;28;21647;-84
2022/06/13 10:15:00;;;;;;;1.58;0.70;;;;;;;15.89;100.00;101186.00;5067271;28;20433;-86
2022/06/13 10:17:49;;;;;;;1.88;0.85;;;;;;;16.14;100.00;101180.00;5061029;28;20435;-86
2022/06/13 10:20:31;;;;;;;3.15;0.80;;;;;;;15.58;100.00;101192.00;5079314;27;21614;-86
2022/06/13 10:23:13;;;;;;;2.70;0.98;;;;;;;15.83;100.00;101195.44;5060706;28;20418;-88
2022/06/13 10:25:57;;;;;;;2.17;0.80;;;;;;;16.65;100.00;101188.28;5061798;28;20431;-88
2022/06/13 10:29:03;;;;;;;2.05;0.70;;;;;;;16.75;100.00;101184.50;5052817;28;20415;-85
2022/06/13 10:31:53;;;;;;;1.35;0.60;;;;;;;16.74;100.00;101193.88;5070010;28;20430;-85
2022/06/13 10:34:35;;;;;;;2.20;0.77;;;;;;;16.46;100.00;101193.91;5060105;28;20426;-85
2022/06/13 10:37:19;;;;;;;5.15;2.10;;;;;;;16.69;100.00;101185.75;5058303;28;20790;-84
2022/06/13 10:39:58;;;;;;;4.80;2.40;;;;;;;16.72;100.00;101183.16;5052479;28;21066;-85
2022/06/13 10:42:30;;;;;;;3.15;0.88;;;;;;;16.52;100.00;101189.94;5075204;28;20414;-82
2022/06/13 10:45:05;;;;;;;2.80;0.70;;;;;;;16.70;100.00;101190.91;5057817;28;20436;-82
2022/06/13 10:47:45;;;;;;;0.93;0.60;;;;;;;16.28;100.00;101182.75;5057948;28;20430;-83
2022/06/13 10:50:21;;;;;;;0.95;0.60;;;;;;;16.57;100.00;101186.25;5043175;28;21003;-85
2022/06/13 10:53:00;;;;;;;0.90;0.40;;;;;;;17.14;100.00;101181.13;5053348;28;20419;-85
2022/06/13 10:55:34;;;;;;;0.60;0.40;;;;;;;17.02;100.00;101182.81;5054478;28;20428;-86
2022/06/13 10:58:17;;;;;;;0.63;0.50;;;;;;;17.44;100.00;101169.66;5054661;28;20431;-85
2022/06/13 11:01:04;;;;;;;0.60;0.50;;;;;;;17.50;100.00;101179.44;5046267;28;20430;-84
2022/06/13 11:03:42;;;;;;;0.52;0.40;;;;;;;17.25;100.00;101175.38;5050721;28;20433;-84
2022/06/13 11:06:22;;;;;;;1.85;0.50;;;;;;;17.21;100.00;101172.44;5052812;28;20432;-86
2022/06/13 11:09:01;;;;;;;0.60;0.35;;;;;;;17.22;98.13;101173.25;5056690;28;20466;-87
2022/06/13 11:11:37;;;;;;;0.75;0.40;;;;;;;17.24;100.00;101179.28;5056418;28;20433;-84
2022/06/13 11:14:27;;;;;;;1.60;0.60;;;;;;;17.00;100.00;101174.88;5052705;28;20432;-84
2022/06/13 11:22:39;;;;;;;1.42;0.65;;;;;;;17.74;100.00;101161.75;5058310;28;20433;-84
2022/06/13 11:25:16;;;;;;;1.23;0.60;;;;;;;18.06;97.55;101168.06;5057363;28;20433;-83
2022/06/13 11:28:02;;;;;;;1.00;0.50;;;;;;;18.02;94.73;101160.44;5052147;28;20434;-83
2022/06/13 11:30:48;;;;;;;1.30;0.50;;;;;;;17.95;97.51;101162.84;5068877;28;20506;-85
2022/06/13 11:33:37;;;;;;;2.00;0.50;;;;;;;18.35;95.97;101156.47;5061322;28;20428;-84
2022/06/13 11:36:22;;;;;;;2.22;0.60;;;;;;;18.76;83.40;101165.44;5060781;28;20437;-84
2022/06/13 11:38:59;;;;;;;2.00;0.65;;;;;;;18.33;79.33;101153.22;5059436;28;20430;-85
2022/06/13 11:41:34;;;;;;;1.63;0.53;;;;;;;17.89;87.95;101153.06;5050372;28;20518;-85
2022/06/13 11:44:11;;;;;;;1.00;0.50;;;;;;;17.80;97.14;101160.47;5056074;28;20430;-85
2022/06/13 11:46:55;;;;;;;1.60;0.50;;;;;;;17.92;97.85;101159.91;5055810;28;20431;-86
2022/06/13 11:49:34;;;;;;;1.10;0.53;;;;;;;18.28;96.85;101156.13;5048577;28;20412;-85
2022/06/13 11:55:20;;;;;;;2.50;0.57;;;;;;;17.82;93.09;101175.53;5065055;28;21810;-83
2022/06/13 11:57:53;;;;;;;2.25;0.60;;;;;;;18.17;83.08;101155.63;5064113;28;20441;-84
2022/06/13 12:00:28;;;;;;;1.40;0.50;;;;;;;18.30;86.64;101160.19;5056770;28;20434;-84
2022/06/13 12:03:07;;;;;;;1.00;0.45;;;;;;;18.06;70.09;101165.31;5058514;28;20439;-83
2022/06/13 12:05:41;;;;;;;1.27;0.50;;;;;;;17.94;71.36;101161.22;5056802;28;20448;-84
2022/06/13 12:08:20;;;;;;;1.00;0.40;;;;;;;17.59;69.32;101172.03;5052595;28;20444;-82
2022/06/13 12:11:21;;;;;;;0.87;0.50;;;;;;;17.56;75.49;101169.09;5050316;28;20431;-85
2022/06/13 12:13:59;;;;;;;1.05;0.50;;;;;;;18.10;72.72;101160.78;5061831;28;20904;-84
2022/06/13 12:16:38;;;;;;;0.93;0.40;;;;;;;18.39;76.71;101151.94;5052989;28;21295;-84
2022/06/13 12:19:23;;;;;;;2.03;0.63;;;;;;;18.76;74.41;101157.19;5053558;28;20432;-83
2022/06/13 12:21:58;;;;;;;1.07;0.50;;;;;;;19.02;77.44;101162.72;5062432;28;20493;-86
2022/06/13 12:24:41;;;;;;;1.45;0.50;;;;;;;19.23;73.03;101153.78;5047392;28;20434;-81